首页
METAR-TAF:

METAR-TAF

机场 :

桂林兩江國際機場

桂林, 中华人民共和国

纬度: 25-20N, 经度: 110-18E, 海拔: 166米

当前天气观测

该预报发布于51分钟前的20:00 UTC
静风
温度 27°C
湿度 89%
气压 1003 hPa
能見度: 8000

METAR: ZGKL 192000Z 00000MPS 8000 NSC 27/25 Q1003 NOSIG

时间: 04:51 (20:51 UTC)

预报

该预报发布于5小时和45分钟前的15:06 UTC
预报有效从19日的 18点(UTC)到 20日的 18点(UTC)
风速6节,风向
能见度10公里或以上
散云层高于3300英尺
短暂存在
从 20日的 07点(UTC)到 20日的 11点(UTC)
少量云层高于3300英尺, 积雨云.

TAF: ZGKL 191506Z 1918/2018 18003MPS 9999 SCT033 TX36/2008Z TN25/1921Z TEMPO 2007/2011 FEW033CB

超过4000个机场的气象观测和天气预报(METAR&TAF报告)。

可查询的气象台以黄色和红色小点在地图上表示。

将鼠标移到小点上方,可查看气象台名称。

然后点击查看天气观测和预报。

如需切换地图:点击带黑十字的绿色按钮放大地图;点击带横线的绿色按钮缩小地图;或者点击绿色箭头查看邻近地区的地图。


METAR-TAF: